Time;durP1;ratioP1;P1;durP2;ratioP2;P2;SDS_P1;SDS_P2;PMS_P1;PMS_P2;Temp;Humidity;BMP_temperature;BMP_pressure;BME280_temperature;BME280_humidity;BME280_pressure;Samples;Min_cycle;Max_cycle;Signal;HPM_P1;HPM_P2
2021/11/06 00:00:52;;;;;;;12.27;8.47;;;;;;;7.69;88.46;101811.25;5011311;28;20238;-72
2021/11/06 00:03:19;;;;;;;12.47;7.90;;;;;;;7.66;87.55;101813.06;5009866;28;20234;-72
2021/11/06 00:05:45;;;;;;;12.73;8.43;;;;;;;7.67;87.86;101813.94;5005334;28;20195;-71
2021/11/06 00:08:12;;;;;;;9.43;7.63;;;;;;;7.65;88.04;101811.34;5006848;28;20203;-71
2021/11/06 00:10:40;;;;;;;13.67;8.10;;;;;;;7.62;87.34;101814.06;5040572;23;20230;-72
2021/11/06 00:13:07;;;;;;;13.13;8.37;;;;;;;7.61;87.35;101812.34;5028979;28;20206;-72
2021/11/06 00:15:35;;;;;;;15.57;9.20;;;;;;;7.61;87.50;101819.44;5022707;28;20580;-71
2021/11/06 00:18:02;;;;;;;16.20;8.27;;;;;;;7.60;87.92;101818.56;5018672;28;20241;-71
2021/11/06 00:20:29;;;;;;;14.93;8.33;;;;;;;7.59;87.67;101811.53;5027262;28;20227;-71
2021/11/06 00:22:55;;;;;;;11.23;8.00;;;;;;;7.58;87.46;101812.44;5015446;28;20226;-71
2021/11/06 00:25:23;;;;;;;12.47;8.57;;;;;;;7.58;87.93;101817.75;5028247;28;20566;-72
2021/11/06 00:27:50;;;;;;;13.27;7.80;;;;;;;7.58;87.41;101816.88;5024956;28;20215;-72
2021/11/06 00:30:17;;;;;;;12.87;7.63;;;;;;;7.57;87.81;101821.31;5029860;28;20218;-72
2021/11/06 00:32:46;;;;;;;13.57;7.70;;;;;;;7.56;87.14;101819.56;5028963;28;20206;-72
2021/11/06 00:35:14;;;;;;;13.90;7.47;;;;;;;7.58;87.27;101824.81;5031957;28;20202;-72
2021/11/06 00:37:42;;;;;;;11.67;7.67;;;;;;;7.56;87.41;101822.22;5024681;28;20198;-72
2021/11/06 00:40:11;;;;;;;11.80;7.27;;;;;;;7.56;87.46;101821.34;5025984;28;20226;-72
2021/11/06 00:42:38;;;;;;;11.53;6.97;;;;;;;7.54;87.85;101831.13;5016894;28;20211;-72
2021/11/06 00:45:07;;;;;;;12.70;8.27;;;;;;;7.51;87.64;101831.25;5021319;28;20707;-72
2021/11/06 00:47:34;;;;;;;13.50;7.80;;;;;;;7.51;87.30;101831.25;5018361;28;20207;-72
2021/11/06 00:50:02;;;;;;;10.70;6.93;;;;;;;7.50;87.53;101827.75;5025346;28;20233;-72
2021/11/06 00:52:28;;;;;;;12.27;7.60;;;;;;;7.48;87.26;101828.69;5030346;28;20224;-72
2021/11/06 00:54:55;;;;;;;11.43;8.57;;;;;;;7.48;88.06;101831.34;5033109;28;20209;-72
2021/11/06 00:57:22;;;;;;;13.17;8.23;;;;;;;7.47;87.28;101835.78;5027032;28;20206;-72
2021/11/06 00:59:48;;;;;;;15.23;7.73;;;;;;;7.46;87.75;101835.81;5031810;28;20296;-72
2021/11/06 01:02:15;;;;;;;11.77;7.27;;;;;;;7.47;87.08;101843.72;5019244;28;20198;-72
2021/11/06 01:04:41;;;;;;;10.50;7.13;;;;;;;7.47;87.28;101840.22;5028414;28;20599;-72
2021/11/06 01:07:09;;;;;;;12.13;7.87;;;;;;;7.46;87.24;101841.13;5030014;28;20213;-72
2021/11/06 01:09:36;;;;;;;16.60;8.50;;;;;;;7.44;87.56;101840.31;5022058;28;20214;-72
2021/11/06 01:12:03;;;;;;;12.13;7.87;;;;;;;7.41;87.93;101833.31;5030068;28;20202;-71
2021/11/06 01:14:29;;;;;;;13.50;8.53;;;;;;;7.41;87.52;101835.97;5022841;28;20595;-73
2021/11/06 01:16:56;;;;;;;12.00;7.83;;;;;;;7.39;87.56;101840.44;5021597;28;20665;-72
2021/11/06 01:19:22;;;;;;;12.97;8.50;;;;;;;7.37;87.24;101836.97;5026517;28;20575;-72
2021/11/06 01:21:49;;;;;;;12.37;8.00;;;;;;;7.36;87.02;101848.47;5022637;28;20613;-72
2021/11/06 01:24:17;;;;;;;12.43;8.47;;;;;;;7.34;87.55;101850.34;5020626;28;20234;-72
2021/11/06 01:26:44;;;;;;;12.50;7.93;;;;;;;7.34;86.98;101847.69;5030342;28;20682;-72
2021/11/06 01:29:10;;;;;;;17.03;8.97;;;;;;;7.32;87.50;101861.00;5020528;28;20207;-72
2021/11/06 01:31:37;;;;;;;12.87;8.40;;;;;;;7.29;87.06;101853.13;5021480;28;20327;-72
2021/11/06 01:34:03;;;;;;;12.27;8.77;;;;;;;7.28;87.65;101848.72;5029800;28;20206;-72
2021/11/06 01:36:30;;;;;;;13.03;8.43;;;;;;;7.26;87.32;101849.69;5022452;28;20206;-72
2021/11/06 01:38:57;;;;;;;11.30;7.80;;;;;;;7.22;87.46;101842.75;5029994;28;20213;-72
2021/11/06 01:41:25;;;;;;;14.77;8.77;;;;;;;7.21;86.86;101835.72;5030888;28;20268;-72
2021/11/06 01:43:51;;;;;;;10.47;7.10;;;;;;;7.19;87.25;101834.88;5025239;28;20294;-72
2021/11/06 01:46:18;;;;;;;12.73;8.27;;;;;;;7.18;87.09;101830.50;5023399;28;20219;-72
2021/11/06 01:48:45;;;;;;;9.43;7.00;;;;;;;7.15;87.40;101833.25;5031345;28;20206;-73
2021/11/06 01:51:11;;;;;;;14.90;8.67;;;;;;;7.12;87.44;101834.22;5030085;28;20233;-72
2021/11/06 01:53:38;;;;;;;14.47;8.57;;;;;;;7.10;87.82;101838.69;5031608;28;20672;-71
2021/11/06 01:56:05;;;;;;;15.40;9.00;;;;;;;7.09;87.23;101836.97;5031363;28;20205;-72
2021/11/06 01:58:34;;;;;;;11.40;8.60;;;;;;;7.08;87.92;101845.81;5032678;28;20216;-71
2021/11/06 02:01:02;;;;;;;12.80;8.23;;;;;;;7.07;87.37;101852.03;5031226;28;20221;-71
2021/11/06 02:03:29;;;;;;;11.57;7.77;;;;;;;7.07;87.49;101851.16;5029031;28;20301;-72
2021/11/06 02:05:56;;;;;;;16.33;9.30;;;;;;;7.06;87.51;101846.78;5025878;28;20577;-72
2021/11/06 02:08:22;;;;;;;13.37;8.27;;;;;;;7.05;88.39;101851.19;5031479;28;20668;-71
2021/11/06 02:10:49;;;;;;;12.63;8.83;;;;;;;7.03;87.48;101845.06;5031319;28;20244;-72
2021/11/06 02:13:16;;;;;;;13.70;9.27;;;;;;;7.03;87.98;101841.56;5030645;28;20202;-72
2021/11/06 02:15:45;;;;;;;17.90;10.27;;;;;;;7.01;87.75;101838.09;5029904;28;20210;-72
2021/11/06 02:18:12;;;;;;;12.87;9.43;;;;;;;7.01;88.08;101849.56;5026032;28;20210;-72
2021/11/06 02:20:39;;;;;;;17.47;10.03;;;;;;;7.01;88.66;101848.69;5027806;28;20233;-72
2021/11/06 02:23:07;;;;;;;13.17;10.27;;;;;;;7.01;88.87;101848.69;5025290;28;20213;-72
2021/11/06 02:25:33;;;;;;;15.73;10.80;;;;;;;7.01;88.64;101851.31;5030234;28;20232;-72
2021/11/06 02:28:00;;;;;;;15.53;11.07;;;;;;;6.99;88.23;101843.44;5028505;28;20212;-72
2021/11/06 02:30:26;;;;;;;20.63;12.13;;;;;;;6.99;88.51;101842.59;5025445;28;20222;-72
2021/11/06 02:32:53;;;;;;;17.13;11.47;;;;;;;7.00;88.64;101847.81;5029739;28;20664;-72
2021/11/06 02:35:21;;;;;;;15.83;11.60;;;;;;;6.99;88.76;101846.06;5031010;28;20233;-72
2021/11/06 02:37:48;;;;;;;15.60;11.03;;;;;;;6.99;88.88;101838.13;5031160;28;20206;-72
2021/11/06 02:40:16;;;;;;;16.07;11.63;;;;;;;6.99;88.51;101847.88;5026859;28;20219;-72
2021/11/06 02:42:43;;;;;;;15.10;10.80;;;;;;;6.99;88.98;101851.38;5029813;28;20209;-72
2021/11/06 02:45:12;;;;;;;15.83;11.03;;;;;;;6.99;89.09;101851.38;5023666;28;20317;-72
2021/11/06 02:47:39;;;;;;;15.03;10.83;;;;;;;7.00;88.93;101862.84;5026261;28;20207;-72
2021/11/06 02:50:06;;;;;;;15.53;10.70;;;;;;;7.00;89.00;101852.25;5021196;28;20602;-72
2021/11/06 02:52:33;;;;;;;20.13;11.27;;;;;;;6.99;88.60;101856.66;5029614;28;20210;-72
2021/11/06 02:54:59;;;;;;;12.73;10.50;;;;;;;6.99;88.94;101855.84;5027194;28;20205;-72
2021/11/06 02:57:28;;;;;;;13.23;10.00;;;;;;;6.99;88.85;101850.53;5020759;28;20203;-72
2021/11/06 02:59:55;;;;;;;13.30;10.00;;;;;;;6.99;89.01;101846.06;5031147;28;20312;-72
2021/11/06 03:02:21;;;;;;;14.17;10.20;;;;;;;6.99;89.00;101850.53;5024302;28;20702;-72
2021/11/06 03:04:48;;;;;;;13.23;10.00;;;;;;;6.98;88.99;101849.66;5027025;28;20229;-72
2021/11/06 03:07:15;;;;;;;15.97;10.07;;;;;;;6.99;89.07;101850.53;5028202;28;20210;-72
2021/11/06 03:09:42;;;;;;;13.53;10.80;;;;;;;6.99;88.67;101847.88;5023941;28;20217;-72
2021/11/06 03:12:11;;;;;;;11.63;10.10;;;;;;;6.99;89.38;101851.38;5023564;28;20297;-72
2021/11/06 03:14:42;;;;;;;14.43;11.03;;;;;;;7.00;88.82;101842.50;5025668;28;20211;-72
2021/11/06 03:17:09;;;;;;;19.73;10.80;;;;;;;7.00;88.83;101850.47;5017773;28;20293;-72
2021/11/06 03:19:35;;;;;;;12.83;9.30;;;;;;;7.01;88.89;101843.38;5027920;28;20214;-72
2021/11/06 03:22:02;;;;;;;14.70;10.93;;;;;;;7.04;89.42;101848.59;5029738;28;20206;-72
2021/11/06 03:24:29;;;;;;;12.87;10.23;;;;;;;7.04;88.93;101849.47;5020711;28;20218;-72
2021/11/06 03:26:55;;;;;;;12.00;9.97;;;;;;;7.06;89.00;101850.28;5028548;28;20664;-72
2021/11/06 03:29:22;;;;;;;13.10;9.70;;;;;;;7.08;88.79;101839.66;5029673;28;20198;-73
2021/11/06 03:31:50;;;;;;;13.23;10.00;;;;;;;7.08;88.39;101853.75;5027348;28;20226;-72
2021/11/06 03:34:16;;;;;;;14.27;9.53;;;;;;;7.08;88.40;101847.59;5029959;28;20202;-72
2021/11/06 03:36:43;;;;;;;15.00;9.50;;;;;;;7.07;88.70;101848.50;5022740;28;20582;-71
2021/11/06 03:39:10;;;;;;;11.03;8.60;;;;;;;7.06;88.71;101857.38;5028354;28;20198;-72
2021/11/06 03:41:37;;;;;;;14.70;9.40;;;;;;;7.06;88.98;101852.94;5028748;28;20225;-70
2021/11/06 03:44:04;;;;;;;11.17;9.20;;;;;;;7.05;88.73;101850.34;5025240;28;20217;-70
2021/11/06 03:46:30;;;;;;;11.87;8.53;;;;;;;7.06;88.60;101852.06;5026424;28;20719;-71
2021/11/06 03:48:58;;;;;;;13.97;9.13;;;;;;;7.05;88.67;101851.19;5028333;28;20209;-71
2021/11/06 03:51:25;;;;;;;10.87;8.70;;;;;;;7.04;88.42;101851.25;5027327;28;20234;-71
2021/11/06 03:53:52;;;;;;;10.20;8.20;;;;;;;7.04;88.90;101861.84;5027096;28;20702;-69
2021/11/06 03:56:19;;;;;;;12.43;8.83;;;;;;;7.03;88.43;101866.28;5028709;28;20207;-71
2021/11/06 03:58:45;;;;;;;13.13;8.90;;;;;;;7.05;88.49;101863.56;5029517;28;20210;-70
2021/11/06 04:01:12;;;;;;;11.87;9.20;;;;;;;7.04;88.37;101860.06;5030150;28;20241;-71
2021/11/06 04:03:38;;;;;;;14.93;9.80;;;;;;;7.07;88.21;101864.41;5028580;28;20514;-71
2021/11/06 04:06:06;;;;;;;15.03;9.47;;;;;;;7.05;88.27;101864.44;5029175;28;20230;-71
2021/11/06 04:08:33;;;;;;;13.10;8.60;;;;;;;7.07;88.19;101864.41;5024139;28;20206;-71
2021/11/06 04:10:59;;;;;;;12.63;10.07;;;;;;;7.07;87.78;101859.97;5021227;28;20243;-71
2021/11/06 04:13:26;;;;;;;12.70;9.27;;;;;;;7.09;87.79;101851.97;5027838;28;20831;-71
2021/11/06 04:15:53;;;;;;;12.70;9.70;;;;;;;7.08;87.72;101856.41;5030298;28;20301;-70
2021/11/06 04:18:19;;;;;;;12.83;8.80;;;;;;;7.11;87.75;101860.75;5028790;28;20202;-70
2021/11/06 04:20:46;;;;;;;12.30;9.80;;;;;;;7.13;87.75;101856.28;5027248;28;20218;-70
2021/11/06 04:23:14;;;;;;;16.03;9.87;;;;;;;7.13;87.95;101864.22;5029041;28;20210;-71
2021/11/06 04:25:41;;;;;;;12.53;9.93;;;;;;;7.15;87.85;101862.41;5028151;28;20226;-71
2021/11/06 04:28:07;;;;;;;13.83;9.03;;;;;;;7.15;87.85;101873.88;5024925;28;20203;-70
2021/11/06 04:30:34;;;;;;;11.93;9.73;;;;;;;7.16;87.97;101874.75;5018214;28;20226;-71
2021/11/06 04:33:00;;;;;;;10.37;9.27;;;;;;;7.17;88.25;101866.72;5014195;28;20202;-70
2021/11/06 04:35:27;;;;;;;12.27;9.60;;;;;;;7.20;87.96;101871.06;5028312;28;20202;-70
2021/11/06 04:37:53;;;;;;;12.87;10.00;;;;;;;7.20;87.52;101871.94;5028648;28;20687;-71
2021/11/06 04:40:21;;;;;;;14.23;10.40;;;;;;;7.22;86.98;101866.59;5023780;28;20233;-71
2021/11/06 04:42:48;;;;;;;12.90;9.90;;;;;;;7.23;87.90;101865.69;5026346;28;20202;-71
2021/11/06 04:45:16;;;;;;;12.47;9.63;;;;;;;7.23;87.96;101860.38;5028183;28;20234;-70
2021/11/06 04:47:42;;;;;;;13.77;10.07;;;;;;;7.25;87.19;101863.84;5028895;28;20210;-70
2021/11/06 04:50:11;;;;;;;12.97;9.07;;;;;;;7.26;87.27;101873.53;5029383;28;20316;-70
2021/11/06 04:52:38;;;;;;;16.27;10.03;;;;;;;7.27;86.85;101875.28;5025704;28;20221;-71
2021/11/06 04:55:07;;;;;;;13.43;10.30;;;;;;;7.28;86.54;101869.06;5029131;28;20237;-71
2021/11/06 04:57:35;;;;;;;15.30;10.30;;;;;;;7.27;86.85;101868.19;5028380;28;20608;-70
2021/11/06 05:00:02;;;;;;;13.23;9.60;;;;;;;7.28;86.90;101862.00;5017366;28;20233;-71
2021/11/06 05:02:28;;;;;;;15.03;9.70;;;;;;;7.29;87.34;101860.19;5017516;28;20388;-71
2021/11/06 05:04:55;;;;;;;12.60;9.53;;;;;;;7.30;86.56;101856.63;5022796;28;20679;-71
2021/11/06 05:07:21;;;;;;;11.80;8.50;;;;;;;7.29;86.54;101868.16;5027350;28;20202;-70
2021/11/06 05:09:49;;;;;;;11.27;8.17;;;;;;;7.29;86.64;101868.16;5023517;28;20211;-71
2021/11/06 05:12:19;;;;;;;11.67;8.57;;;;;;;7.29;86.64;101866.38;5013270;28;20749;-70
2021/11/06 05:14:47;;;;;;;20.03;8.93;;;;;;;7.29;86.38;101870.81;5020258;28;20225;-71
2021/11/06 05:17:14;;;;;;;10.20;8.40;;;;;;;7.30;85.77;101870.75;5020132;28;20202;-71
2021/11/06 05:19:40;;;;;;;11.27;8.73;;;;;;;7.29;85.49;101871.69;5029768;28;20248;-70
2021/11/06 05:22:08;;;;;;;10.23;7.87;;;;;;;7.29;85.60;101868.16;5025101;28;20206;-70
2021/11/06 05:24:34;;;;;;;12.47;8.97;;;;;;;7.28;85.74;101863.78;5026207;28;20202;-71
2021/11/06 05:27:01;;;;;;;10.87;8.57;;;;;;;7.28;85.66;101867.28;5020955;28;20696;-70
2021/11/06 05:29:27;;;;;;;13.27;9.23;;;;;;;7.30;85.22;101872.53;5027492;28;20214;-71
2021/11/06 05:31:55;;;;;;;12.30;8.67;;;;;;;7.28;85.22;101869.94;5024363;28;20714;-71
2021/11/06 05:34:22;;;;;;;13.20;8.80;;;;;;;7.28;84.67;101877.00;5031939;28;20202;-71
2021/11/06 05:36:49;;;;;;;13.70;9.23;;;;;;;7.30;84.48;101877.84;5024126;28;20229;-70
2021/11/06 05:39:15;;;;;;;12.83;9.63;;;;;;;7.30;84.66;101878.72;5026365;28;20226;-71
2021/11/06 05:41:42;;;;;;;13.73;9.47;;;;;;;7.30;84.51;101869.88;5031181;28;20222;-68
2021/11/06 05:44:09;;;;;;;14.37;10.60;;;;;;;7.29;84.61;101871.69;5025186;28;20213;-71
2021/11/06 05:46:35;;;;;;;14.13;10.20;;;;;;;7.30;84.53;101885.78;5029726;28;20598;-71
2021/11/06 05:49:03;;;;;;;16.93;11.33;;;;;;;7.29;83.99;101882.28;5026140;28;20206;-71
2021/11/06 05:51:30;;;;;;;16.93;10.83;;;;;;;7.29;84.78;101884.06;5029042;28;20234;-71
2021/11/06 05:53:56;;;;;;;15.17;10.47;;;;;;;7.27;83.97;101889.41;5028044;28;20575;-70
2021/11/06 05:56:23;;;;;;;15.40;10.67;;;;;;;7.28;84.03;101882.31;5024472;28;20199;-70
2021/11/06 05:58:49;;;;;;;15.13;10.53;;;;;;;7.27;84.88;101883.22;5026899;28;20260;-70
2021/11/06 06:01:16;;;;;;;14.50;10.03;;;;;;;7.27;84.45;101883.22;5024288;28;20230;-70
2021/11/06 06:03:44;;;;;;;17.97;10.87;;;;;;;7.26;84.27;101876.19;5030103;28;20577;-72
2021/11/06 06:06:12;;;;;;;13.90;10.83;;;;;;;7.26;84.23;101870.88;5027388;28;20219;-70
2021/11/06 06:08:38;;;;;;;15.90;10.87;;;;;;;7.25;84.24;101875.31;5025977;28;20679;-73
2021/11/06 06:11:05;;;;;;;17.80;10.63;;;;;;;7.23;84.52;101866.53;5042733;23;20236;-82
2021/11/06 06:13:31;;;;;;;13.97;10.63;;;;;;;7.22;84.29;101866.59;5047435;28;20260;-82
2021/11/06 06:15:58;;;;;;;17.87;11.77;;;;;;;7.20;84.06;101865.75;5037934;28;20210;-82
2021/11/06 06:18:25;;;;;;;14.53;9.90;;;;;;;7.20;83.66;101860.47;5036799;28;20601;-82
2021/11/06 06:20:51;;;;;;;18.57;11.00;;;;;;;7.17;84.35;101861.41;5034647;28;20210;-83
2021/11/06 06:23:19;;;;;;;13.40;9.43;;;;;;;7.15;84.24;101862.41;5034073;28;20320;-80
2021/11/06 06:25:46;;;;;;;13.03;10.13;;;;;;;7.15;84.54;101865.06;5035217;28;20222;-80
2021/11/06 06:28:13;;;;;;;14.90;10.23;;;;;;;7.13;84.44;101858.94;5034471;28;20206;-83
2021/11/06 06:30:39;;;;;;;13.57;10.23;;;;;;;7.12;84.63;101852.75;5033415;28;20208;-80
2021/11/06 06:33:06;;;;;;;18.10;10.50;;;;;;;7.12;84.19;101846.59;5033821;28;20222;-81
2021/11/06 06:35:33;;;;;;;17.27;9.60;;;;;;;7.11;84.48;101866.06;5035033;28;20214;-81
2021/11/06 06:38:00;;;;;;;14.40;9.70;;;;;;;7.10;83.88;101864.31;5024896;28;20212;-80
2021/11/06 06:40:29;;;;;;;11.37;9.13;;;;;;;7.08;84.04;101868.78;5032200;28;20296;-82
2021/11/06 06:42:55;;;;;;;13.30;10.37;;;;;;;7.07;83.87;101867.06;5029741;28;20232;-82
2021/11/06 06:45:22;;;;;;;14.97;9.63;;;;;;;7.06;83.61;101867.97;5032592;28;20202;-81
2021/11/06 06:47:49;;;;;;;13.03;9.30;;;;;;;7.04;83.93;101870.66;5035317;28;20553;-82
2021/11/06 06:50:16;;;;;;;20.70;9.23;;;;;;;7.03;84.35;101878.63;5035965;28;20199;-82
2021/11/06 06:52:43;;;;;;;13.20;7.77;;;;;;;7.03;84.19;101868.03;5055607;28;20221;-81
2021/11/06 06:55:09;;;;;;;15.03;9.63;;;;;;;7.00;84.33;101866.34;5055498;28;20269;-81
2021/11/06 06:57:38;;;;;;;14.83;9.30;;;;;;;7.01;83.88;101872.50;5036224;28;20210;-82
2021/11/06 07:00:07;;;;;;;10.60;8.80;;;;;;;7.01;84.08;101875.16;5035207;28;20586;-81
2021/11/06 07:02:35;;;;;;;13.10;9.10;;;;;;;6.98;84.58;101870.84;5034999;28;20206;-82
2021/11/06 07:05:01;;;;;;;12.83;7.63;;;;;;;6.98;83.85;101868.22;5034476;28;20293;-82
2021/11/06 07:07:28;;;;;;;14.27;8.23;;;;;;;6.99;84.08;101869.06;5034741;28;20238;-82
2021/11/06 07:09:55;;;;;;;12.60;8.00;;;;;;;7.01;84.26;101875.16;5021175;28;20208;-81
2021/11/06 07:12:24;;;;;;;10.43;6.97;;;;;;;7.02;84.29;101861.00;5034118;28;20289;-81
2021/11/06 07:14:52;;;;;;;14.63;7.50;;;;;;;7.05;84.30;101876.81;5034159;28;20613;-81
2021/11/06 07:17:19;;;;;;;10.00;6.60;;;;;;;7.06;84.68;101867.97;5034232;28;20272;-82
2021/11/06 07:19:45;;;;;;;8.67;6.23;;;;;;;7.07;84.69;101873.22;5051183;28;20207;-82
2021/11/06 07:22:12;;;;;;;12.30;6.90;;;;;;;7.12;84.23;101876.59;5046126;28;20204;-81
2021/11/06 07:24:39;;;;;;;10.43;7.10;;;;;;;7.16;83.87;101874.75;5034257;28;20237;-82
2021/11/06 07:27:07;;;;;;;9.10;5.97;;;;;;;7.19;84.78;101874.63;5034171;28;20233;-82
2021/11/06 07:29:35;;;;;;;10.80;6.30;;;;;;;7.21;84.98;101878.97;5034192;28;20213;-82
2021/11/06 07:32:04;;;;;;;9.00;5.33;;;;;;;7.23;84.45;101887.75;5034094;28;20284;-82
2021/11/06 07:34:31;;;;;;;9.17;5.30;;;;;;;7.26;84.06;101897.38;5034504;28;20230;-82
2021/11/06 07:36:58;;;;;;;7.40;4.77;;;;;;;7.31;84.56;101891.06;5035261;28;20225;-84
2021/11/06 07:39:26;;;;;;;8.00;4.80;;;;;;;7.34;83.97;101900.69;5034188;28;20209;-84
2021/11/06 07:41:52;;;;;;;8.87;5.47;;;;;;;7.36;83.87;101895.31;5034686;28;20245;-85
2021/11/06 07:44:19;;;;;;;9.80;5.30;;;;;;;7.38;83.40;101889.06;5035816;28;20317;-83
2021/11/06 07:46:46;;;;;;;7.33;4.83;;;;;;;7.38;83.67;101891.72;5036075;28;20234;-83
2021/11/06 07:49:14;;;;;;;8.13;4.80;;;;;;;7.42;83.72;101888.06;5032864;28;20301;-83
2021/11/06 07:51:40;;;;;;;7.70;4.90;;;;;;;7.43;82.95;101888.94;5034118;28;20206;-83
2021/11/06 07:54:07;;;;;;;6.80;4.83;;;;;;;7.46;83.15;101879.09;5033822;28;20222;-82
2021/11/06 07:56:35;;;;;;;7.27;4.73;;;;;;;7.50;83.57;101878.09;5033735;28;20221;-83
2021/11/06 07:59:02;;;;;;;9.23;4.60;;;;;;;7.54;83.04;101892.09;5034868;28;20256;-83
2021/11/06 08:01:30;;;;;;;7.87;4.50;;;;;;;7.57;82.96;101898.19;5030879;28;20732;-83
2021/11/06 08:03:56;;;;;;;9.77;5.23;;;;;;;7.60;83.20;101900.75;5033085;28;20653;-83
2021/11/06 08:06:24;;;;;;;7.83;5.07;;;;;;;7.64;83.41;101899.75;5028151;28;20579;-83
2021/11/06 08:08:51;;;;;;;7.13;4.57;;;;;;;7.66;82.94;101903.22;5032563;28;20202;-81
2021/11/06 08:11:17;;;;;;;6.83;4.40;;;;;;;7.69;82.65;101904.91;5030233;28;20210;-81
2021/11/06 08:13:44;;;;;;;6.70;3.67;;;;;;;7.72;81.89;101896.84;5031125;28;20227;-82
2021/11/06 08:16:10;;;;;;;7.00;4.00;;;;;;;7.76;81.91;101902.91;5030604;28;20725;-82
2021/11/06 08:18:37;;;;;;;8.03;5.03;;;;;;;7.76;81.55;101895.81;5039473;28;20212;-83
2021/11/06 08:21:04;;;;;;;11.27;5.00;;;;;;;7.78;81.99;101893.13;5026883;28;20207;-83
2021/11/06 08:23:31;;;;;;;9.10;4.83;;;;;;;7.80;82.01;101888.66;5029739;28;20316;-82
2021/11/06 08:25:58;;;;;;;7.30;4.80;;;;;;;7.83;82.12;101888.56;5028199;28;20213;-83
2021/11/06 08:28:25;;;;;;;8.30;4.80;;;;;;;7.87;81.61;101884.88;5029266;28;20293;-81
2021/11/06 08:30:51;;;;;;;6.97;4.20;;;;;;;7.90;81.32;101884.75;5037911;28;20212;-83
2021/11/06 08:33:18;;;;;;;7.23;4.57;;;;;;;7.91;80.67;101881.19;5043342;28;20304;-83
2021/11/06 08:35:44;;;;;;;6.93;3.70;;;;;;;7.95;81.18;101883.72;5034863;28;20201;-83
2021/11/06 08:38:12;;;;;;;7.40;4.20;;;;;;;7.97;80.71;101889.84;5037669;28;20201;-84
2021/11/06 08:40:40;;;;;;;8.10;4.30;;;;;;;8.00;80.45;101888.88;5032686;28;20301;-84
2021/11/06 08:43:06;;;;;;;5.63;3.77;;;;;;;8.04;80.57;101887.84;5031607;28;20218;-83
2021/11/06 08:45:33;;;;;;;5.30;3.20;;;;;;;8.09;79.39;101895.63;5031332;28;20202;-84
2021/11/06 08:48:00;;;;;;;5.83;3.67;;;;;;;8.09;80.12;101882.38;5043774;28;20359;-85
2021/11/06 08:50:29;;;;;;;7.73;3.90;;;;;;;8.14;78.59;101885.75;5037115;28;20631;-84
2021/11/06 08:52:57;;;;;;;5.40;3.40;;;;;;;8.16;78.34;101882.13;5037855;28;20712;-85
2021/11/06 08:55:25;;;;;;;5.10;3.60;;;;;;;8.18;78.57;101875.00;5049325;28;20237;-85
2021/11/06 08:57:53;;;;;;;5.33;3.53;;;;;;;8.19;77.90;101881.16;5037640;28;20639;-84
2021/11/06 09:00:31;;;;;;;5.27;3.43;;;;;;;8.22;77.98;101881.94;5045061;28;20296;-85
2021/11/06 09:02:58;;;;;;;5.47;3.33;;;;;;;8.25;78.37;101883.59;5033546;28;20241;-84
2021/11/06 09:05:24;;;;;;;6.13;3.40;;;;;;;8.29;78.27;101888.75;5041734;28;20210;-85
2021/11/06 09:07:51;;;;;;;5.30;3.60;;;;;;;8.32;77.58;101895.78;5044346;28;20321;-84
2021/11/06 09:10:19;;;;;;;5.43;3.33;;;;;;;8.35;78.24;101893.03;5047453;28;20324;-85
2021/11/06 09:12:47;;;;;;;7.67;3.80;;;;;;;8.39;77.45;101884.03;5043896;28;20594;-84
2021/11/06 09:15:15;;;;;;;5.73;3.53;;;;;;;8.41;77.27;101886.66;5039990;28;20401;-84
2021/11/06 09:17:42;;;;;;;4.17;3.20;;;;;;;8.43;77.53;101892.75;5040487;28;20217;-85
2021/11/06 09:20:09;;;;;;;5.33;3.10;;;;;;;8.44;76.56;101892.69;5032010;28;20297;-85
2021/11/06 09:22:37;;;;;;;5.23;3.00;;;;;;;8.47;76.20;101891.72;5035368;28;20313;-84
2021/11/06 09:25:05;;;;;;;4.93;2.83;;;;;;;8.50;76.67;101896.94;5040663;28;20286;-83
2021/11/06 09:27:32;;;;;;;5.63;2.80;;;;;;;8.51;76.38;101888.91;5039497;28;20289;-84
2021/11/06 09:29:59;;;;;;;4.53;2.90;;;;;;;8.53;75.18;101903.00;5035953;28;20218;-84
2021/11/06 09:32:27;;;;;;;3.60;2.77;;;;;;;8.51;74.68;101896.00;5038837;28;20309;-85
2021/11/06 09:34:53;;;;;;;5.03;2.83;;;;;;;8.50;74.89;101900.44;5038793;28;20217;-83
2021/11/06 09:37:20;;;;;;;6.03;3.30;;;;;;;8.52;75.00;101913.69;5038857;28;20206;-84
2021/11/06 09:39:47;;;;;;;5.17;3.47;;;;;;;8.52;75.33;101903.06;5036680;28;20238;-85
2021/11/06 09:42:23;;;;;;;4.80;3.20;;;;;;;8.53;74.78;101903.00;5021413;28;20207;-83
2021/11/06 09:44:52;;;;;;;4.40;2.83;;;;;;;8.55;74.76;101905.63;5040753;28;20203;-85
2021/11/06 09:47:20;;;;;;;3.80;2.40;;;;;;;8.58;74.02;101900.19;5035210;28;20261;-85
2021/11/06 09:49:48;;;;;;;4.90;2.97;;;;;;;8.56;74.03;101902.91;5026190;28;20670;-84
2021/11/06 09:52:16;;;;;;;6.00;2.93;;;;;;;8.55;73.94;101897.66;5026898;28;20230;-84
2021/11/06 09:54:44;;;;;;;5.67;2.80;;;;;;;8.55;73.29;101900.31;5026676;28;20217;-84
2021/11/06 09:57:10;;;;;;;6.73;3.10;;;;;;;8.57;73.42;101901.13;5038762;28;20673;-84
2021/11/06 09:59:37;;;;;;;5.80;2.80;;;;;;;8.58;73.53;101894.88;5038502;28;20213;-84
2021/11/06 10:02:04;;;;;;;3.67;2.60;;;;;;;8.57;73.17;101891.38;5033110;28;20212;-84
2021/11/06 10:04:32;;;;;;;4.57;3.43;;;;;;;8.57;73.40;101885.19;5037612;28;20236;-83
2021/11/06 10:07:13;;;;;;;3.60;2.70;;;;;;;8.61;72.42;101885.00;5038047;28;20221;-84
2021/11/06 10:09:40;;;;;;;4.57;3.33;;;;;;;8.60;72.84;101885.06;5029708;28;20215;-83
2021/11/06 10:12:07;;;;;;;4.73;2.90;;;;;;;8.59;72.27;101892.19;5036257;28;20210;-84
2021/11/06 10:14:34;;;;;;;5.30;3.20;;;;;;;8.59;72.84;101886.88;5038271;28;20409;-84
2021/11/06 10:17:02;;;;;;;4.97;2.53;;;;;;;8.59;72.42;101892.19;5041967;28;20198;-83
2021/11/06 10:19:31;;;;;;;3.63;2.67;;;;;;;8.60;72.71;101885.91;5041126;28;20210;-82
2021/11/06 10:22:10;;;;;;;4.63;3.00;;;;;;;8.64;72.22;101882.25;5035180;28;20201;-80
2021/11/06 10:24:41;;;;;;;5.83;2.97;;;;;;;8.64;71.65;101882.25;5041485;28;20304;-81
2021/11/06 10:27:18;;;;;;;4.87;2.73;;;;;;;8.67;72.54;101875.97;5040889;28;20222;-81
2021/11/06 10:29:45;;;;;;;4.17;3.20;;;;;;;8.68;71.33;101890.97;5043187;28;20288;-81
2021/11/06 10:32:12;;;;;;;6.37;3.70;;;;;;;8.69;71.70;101877.63;5034889;28;20205;-81
2021/11/06 10:34:41;;;;;;;4.63;3.20;;;;;;;8.69;72.21;101877.63;5038303;28;20230;-82
2021/11/06 10:37:12;;;;;;;4.90;3.10;;;;;;;8.70;72.15;101878.50;5033416;28;20260;-81
2021/11/06 10:39:53;;;;;;;4.60;3.27;;;;;;;8.72;72.43;101870.47;5038115;28;20233;-82
2021/11/06 10:42:20;;;;;;;6.07;3.00;;;;;;;8.74;71.96;101860.69;5037731;28;20252;-83
2021/11/06 10:44:46;;;;;;;6.53;3.43;;;;;;;8.76;72.13;101872.13;5027858;28;20198;-82
2021/11/06 10:47:13;;;;;;;4.50;3.43;;;;;;;8.78;72.45;101860.47;5020205;28;20225;-81
2021/11/06 10:49:43;;;;;;;4.80;3.40;;;;;;;8.79;72.19;101862.22;5022789;28;20266;-81
2021/11/06 10:52:13;;;;;;;4.27;2.97;;;;;;;8.80;72.14;101860.44;5028422;28;20669;-82
2021/11/06 10:55:02;;;;;;;6.43;3.43;;;;;;;8.78;72.08;101855.16;5031859;28;20230;-85
2021/11/06 10:57:29;;;;;;;5.40;3.53;;;;;;;8.78;72.52;101857.00;5037473;28;20213;-86
2021/11/06 11:00:13;;;;;;;5.30;3.60;;;;;;;8.79;72.40;101851.59;5037213;28;20206;-85
2021/11/06 11:02:40;;;;;;;4.80;2.90;;;;;;;8.80;72.43;101860.44;5028420;28;20234;-86
2021/11/06 11:05:34;;;;;;;7.67;4.30;;;;;;;8.82;72.41;101850.63;5023893;28;20206;-85
2021/11/06 11:08:07;;;;;;;4.27;2.73;;;;;;;8.84;73.45;101839.03;5033314;28;20236;-85
2021/11/06 11:10:34;;;;;;;6.03;3.30;;;;;;;8.87;73.68;101838.91;5026356;28;20210;-85
2021/11/06 11:13:08;;;;;;;6.40;3.67;;;;;;;8.88;73.09;101845.09;5037423;28;20226;-84
2021/11/06 11:15:35;;;;;;;4.90;3.03;;;;;;;8.87;74.00;101832.72;5025883;28;20210;-85
2021/11/06 11:18:02;;;;;;;7.43;3.67;;;;;;;8.87;73.36;101838.03;5033437;28;20279;-85
2021/11/06 11:20:32;;;;;;;6.00;4.10;;;;;;;8.85;74.25;101840.75;5036224;28;20594;-84
2021/11/06 11:23:11;;;;;;;5.77;3.50;;;;;;;8.85;73.85;101838.09;5037803;28;20225;-86
2021/11/06 11:25:39;;;;;;;7.27;3.47;;;;;;;8.87;74.35;101848.66;5035365;28;20214;-81
2021/11/06 11:28:06;;;;;;;6.10;3.23;;;;;;;8.88;73.83;101835.34;5028092;28;20233;-82